createdAt,value
2022-11-09T06:15:55.715Z,100.00
2022-11-09T06:25:55.830Z,100.00
2022-11-09T06:35:56.674Z,100.00
2022-11-09T06:45:55.834Z,100.00
2022-11-09T06:55:55.752Z,100.00
2022-11-09T07:05:55.732Z,100.00
2022-11-09T07:15:55.951Z,100.00
2022-11-09T07:25:56.024Z,100.00
2022-11-09T07:35:56.282Z,100.00
2022-11-09T07:45:56.292Z,100.00
2022-11-09T07:55:56.353Z,100.00
2022-11-09T08:05:56.782Z,100.00
2022-11-09T08:15:56.865Z,100.00
2022-11-09T08:25:56.951Z,100.00
2022-11-09T08:35:57.001Z,100.00
2022-11-09T08:45:57.284Z,100.00
2022-11-09T08:55:57.169Z,100.00
2022-11-09T09:05:57.145Z,100.00
2022-11-09T09:15:57.149Z,100.00
2022-11-09T09:25:58.711Z,100.00
2022-11-09T09:35:57.239Z,100.00
2022-11-09T09:45:58.121Z,100.00
2022-11-09T09:55:57.076Z,100.00
2022-11-09T10:05:57.318Z,100.00
2022-11-09T10:15:57.210Z,100.00
2022-11-09T10:26:04.609Z,100.00
2022-11-09T10:35:57.325Z,100.00
2022-11-09T10:45:57.289Z,100.00
2022-11-09T10:55:57.042Z,100.00
2022-11-09T11:05:57.142Z,100.00
2022-11-09T11:15:57.369Z,100.00
2022-11-09T11:25:57.161Z,100.00
2022-11-09T11:35:57.313Z,100.00
2022-11-09T11:45:57.260Z,100.00
2022-11-09T11:55:57.321Z,100.00
2022-11-09T12:05:57.284Z,100.00
2022-11-09T12:15:57.342Z,100.00
2022-11-09T12:25:57.192Z,100.00
2022-11-09T12:35:57.198Z,100.00
2022-11-09T12:45:57.259Z,100.00
2022-11-09T12:55:57.231Z,100.00
2022-11-09T13:06:02.250Z,100.00
2022-11-09T13:15:57.259Z,99.41
2022-11-09T13:25:57.405Z,100.00
2022-11-09T13:35:57.379Z,94.70
2022-11-09T13:45:57.233Z,89.11
2022-11-09T13:55:57.380Z,85.82
2022-11-09T14:05:57.415Z,86.62
2022-11-09T14:15:57.155Z,79.29
2022-11-09T14:25:57.291Z,76.41
2022-11-09T14:35:57.223Z,75.51
2022-11-09T14:45:57.427Z,74.67
2022-11-09T14:55:57.328Z,75.18
2022-11-09T15:05:57.312Z,73.39
2022-11-09T15:15:57.373Z,72.57
2022-11-09T15:25:57.531Z,71.54
2022-11-09T15:35:57.446Z,70.89
2022-11-09T15:45:57.553Z,70.70
2022-11-09T15:55:57.300Z,69.67
2022-11-09T16:05:57.435Z,71.76
2022-11-09T16:15:57.349Z,72.68
2022-11-09T16:25:57.451Z,72.92
2022-11-09T16:35:57.272Z,72.76
2022-11-09T16:45:57.349Z,73.42
2022-11-09T16:55:57.569Z,73.23
2022-11-09T17:05:57.369Z,73.66
2022-11-09T17:15:57.452Z,73.07
2022-11-09T17:25:57.459Z,73.15
2022-11-09T17:35:57.535Z,74.28
2022-11-09T17:45:57.420Z,76.01
2022-11-09T17:55:57.337Z,77.12
2022-11-09T18:05:57.514Z,78.14
2022-11-09T18:15:57.549Z,77.62
2022-11-09T18:25:57.542Z,77.51
2022-11-09T18:35:57.441Z,78.38
2022-11-09T18:45:57.514Z,79.17
2022-11-09T18:55:57.642Z,80.75
2022-11-09T19:05:57.452Z,81.70
2022-11-09T19:15:58.457Z,81.05
